createdAt,value
2019-05-07T00:01:04.989Z,5.38
2019-05-07T00:03:33.913Z,5.34
2019-05-07T00:06:02.905Z,5.32
2019-05-07T00:08:32.238Z,5.42
2019-05-07T00:11:02.270Z,5.33
2019-05-07T00:13:33.245Z,5.20
2019-05-07T00:16:02.476Z,5.11
2019-05-07T00:18:32.191Z,5.05
2019-05-07T00:21:03.346Z,5.23
2019-05-07T00:23:32.622Z,5.23
2019-05-07T00:26:02.448Z,5.22
2019-05-07T00:28:32.493Z,5.28
2019-05-07T00:31:02.869Z,5.24
2019-05-07T00:33:32.523Z,5.18
2019-05-07T00:36:12.978Z,5.31
2019-05-07T00:38:44.806Z,5.35
2019-05-07T00:41:23.246Z,5.41
2019-05-07T00:43:54.177Z,5.36
2019-05-07T00:46:25.874Z,5.32
2019-05-07T00:48:54.575Z,5.26
2019-05-07T00:51:27.741Z,5.27
2019-05-07T00:53:56.505Z,5.19
2019-05-07T00:56:27.784Z,5.26
2019-05-07T00:58:56.868Z,5.31
2019-05-07T01:01:26.126Z,5.18
2019-05-07T01:03:54.893Z,5.23
2019-05-07T01:06:26.642Z,5.14
2019-05-07T01:08:54.577Z,5.16
2019-05-07T01:11:23.755Z,5.23
2019-05-07T01:13:52.698Z,5.21
2019-05-07T01:16:22.214Z,5.14
2019-05-07T01:18:53.861Z,5.08
2019-05-07T01:21:22.846Z,5.17
2019-05-07T01:23:52.313Z,5.19
2019-05-07T01:26:21.902Z,5.20
2019-05-07T01:29:02.837Z,5.24
2019-05-07T01:31:43.000Z,5.32
2019-05-07T01:34:32.313Z,5.15
2019-05-07T01:37:02.690Z,5.07
2019-05-07T01:39:32.650Z,5.17
2019-05-07T01:42:02.285Z,5.19
2019-05-07T01:44:32.560Z,5.12
2019-05-07T01:47:02.531Z,4.95
2019-05-07T01:49:33.032Z,5.08
2019-05-07T01:52:02.651Z,5.06
2019-05-07T01:54:33.264Z,5.15
2019-05-07T01:57:03.007Z,5.02
2019-05-07T01:59:32.209Z,5.21
2019-05-07T02:02:06.317Z,5.18
2019-05-07T02:04:43.839Z,5.14
2019-05-07T02:07:34.573Z,5.13
2019-05-07T02:10:25.504Z,5.02
2019-05-07T02:12:54.401Z,5.02
2019-05-07T02:15:23.238Z,4.93
2019-05-07T02:17:52.646Z,4.91
2019-05-07T02:20:22.524Z,4.87
2019-05-07T02:22:53.261Z,4.87
2019-05-07T02:25:22.239Z,4.77
2019-05-07T02:27:52.881Z,4.76
2019-05-07T02:30:23.820Z,4.88
2019-05-07T02:32:54.008Z,4.82
2019-05-07T02:35:23.667Z,4.78
2019-05-07T02:38:03.121Z,4.85
2019-05-07T02:40:38.470Z,4.89
2019-05-07T02:43:07.400Z,4.89
2019-05-07T02:45:47.799Z,4.94
2019-05-07T02:48:19.849Z,4.92
2019-05-07T02:50:56.669Z,4.80
2019-05-07T02:53:33.683Z,4.76
2019-05-07T02:56:03.621Z,4.80
2019-05-07T02:58:33.132Z,4.83
2019-05-07T03:01:04.793Z,4.82
2019-05-07T03:03:33.497Z,4.81
2019-05-07T03:06:05.133Z,4.96
2019-05-07T03:08:33.826Z,5.00
2019-05-07T03:11:03.481Z,4.88
2019-05-07T03:13:33.906Z,4.82
2019-05-07T03:16:03.771Z,4.90
2019-05-07T03:18:33.877Z,4.84
2019-05-07T03:21:12.786Z,4.74
2019-05-07T03:24:03.663Z,4.81
2019-05-07T03:26:36.691Z,4.74
2019-05-07T03:29:09.109Z,4.80
2019-05-07T03:31:55.639Z,4.53
2019-05-07T03:34:47.134Z,4.49
2019-05-07T03:37:18.947Z,4.58
2019-05-07T03:39:47.948Z,4.62
2019-05-07T03:42:18.495Z,4.74
2019-05-07T03:45:15.412Z,4.58
2019-05-07T03:47:47.211Z,4.64
2019-05-07T03:50:16.350Z,4.73
2019-05-07T03:52:45.044Z,4.62
2019-05-07T03:55:14.798Z,4.52
2019-05-07T03:57:44.187Z,4.48
2019-05-07T04:00:13.568Z,4.57
2019-05-07T04:02:43.754Z,4.60
2019-05-07T04:05:13.939Z,4.57
2019-05-07T04:07:43.621Z,4.54
2019-05-07T04:10:14.905Z,4.65
2019-05-07T04:12:44.149Z,4.58
2019-05-07T04:15:15.491Z,4.40
2019-05-07T04:17:44.033Z,4.34
2019-05-07T04:20:13.799Z,4.35
2019-05-07T04:22:43.266Z,4.46
2019-05-07T04:25:34.758Z,4.31
2019-05-07T04:28:14.125Z,4.37
2019-05-07T04:30:43.781Z,4.35
2019-05-07T04:33:14.380Z,4.31
2019-05-07T04:35:48.703Z,4.35
2019-05-07T04:38:17.894Z,4.28
2019-05-07T04:40:47.057Z,4.24
2019-05-07T04:43:15.741Z,4.30
2019-05-07T04:45:44.647Z,4.32
2019-05-07T04:48:14.250Z,4.33
2019-05-07T04:50:47.903Z,4.28
2019-05-07T04:53:15.522Z,4.32
2019-05-07T04:55:44.451Z,4.49
2019-05-07T04:58:14.086Z,4.34
2019-05-07T05:00:43.484Z,4.32
2019-05-07T05:03:23.750Z,4.26
2019-05-07T05:05:53.266Z,4.30
2019-05-07T05:08:23.460Z,4.46
2019-05-07T05:10:53.727Z,4.44
2019-05-07T05:13:23.773Z,4.26
2019-05-07T05:15:52.949Z,4.41
2019-05-07T05:18:22.147Z,4.42
2019-05-07T05:21:04.676Z,4.39
2019-05-07T05:23:45.106Z,4.28
2019-05-07T05:26:13.773Z,4.26
2019-05-07T05:28:42.556Z,4.23
2019-05-07T05:31:12.678Z,4.32
2019-05-07T05:33:42.114Z,4.33
2019-05-07T05:36:12.653Z,4.36
2019-05-07T05:38:42.383Z,4.38
2019-05-07T05:41:12.324Z,4.53
2019-05-07T05:44:11.855Z,4.70
2019-05-07T05:46:42.697Z,4.70
2019-05-07T05:49:11.881Z,4.54
2019-05-07T05:52:08.741Z,4.57
2019-05-07T05:54:56.372Z,4.54
2019-05-07T05:57:34.819Z,4.73
2019-05-07T06:00:38.701Z,4.72
2019-05-07T06:03:29.652Z,4.77
2019-05-07T06:06:07.462Z,4.91
2019-05-07T06:08:44.772Z,5.16
2019-05-07T06:11:32.899Z,5.09
2019-05-07T06:14:06.862Z,5.26
2019-05-07T06:16:38.906Z,5.35
2019-05-07T06:19:13.753Z,5.28
2019-05-07T06:22:16.942Z,5.27
2019-05-07T06:24:53.137Z,5.39
2019-05-07T06:27:22.955Z,5.70
2019-05-07T06:29:52.457Z,5.72
2019-05-07T06:32:22.928Z,5.75
2019-05-07T06:34:52.292Z,5.81
2019-05-07T06:37:22.868Z,5.87
2019-05-07T06:40:02.612Z,5.96
2019-05-07T06:42:52.240Z,6.17
2019-05-07T06:45:26.788Z,6.20
2019-05-07T06:47:55.466Z,6.25
2019-05-07T06:50:24.250Z,6.21
2019-05-07T06:52:53.196Z,5.87
2019-05-07T06:55:22.878Z,6.04
2019-05-07T06:57:53.046Z,6.07
2019-05-07T07:00:42.205Z,5.99
2019-05-07T07:03:17.906Z,6.09
2019-05-07T07:06:12.633Z,6.13
2019-05-07T07:09:02.593Z,6.34
2019-05-07T07:11:36.645Z,6.48
2019-05-07T07:14:05.780Z,6.57
2019-05-07T07:16:34.549Z,6.69
2019-05-07T07:19:03.484Z,6.78
2019-05-07T07:21:32.779Z,6.87
2019-05-07T07:24:03.035Z,6.24
2019-05-07T07:26:36.322Z,6.12
2019-05-07T07:29:05.869Z,6.04
2019-05-07T07:31:42.592Z,6.37
2019-05-07T07:34:12.987Z,6.62
2019-05-07T07:37:05.020Z,6.63
2019-05-07T07:39:22.759Z,6.36
2019-05-07T07:41:54.650Z,6.44
2019-05-07T07:44:23.411Z,6.43
2019-05-07T07:46:53.103Z,6.62
2019-05-07T07:49:22.484Z,6.66
2019-05-07T07:51:52.585Z,6.41
2019-05-07T07:54:22.662Z,6.51
2019-05-07T07:56:58.569Z,6.46
2019-05-07T07:59:45.595Z,6.45
2019-05-07T08:02:42.521Z,6.44
2019-05-07T08:05:12.487Z,6.58
2019-05-07T08:07:42.606Z,6.64
2019-05-07T08:10:12.836Z,6.74
2019-05-07T08:12:42.428Z,7.02
2019-05-07T08:15:18.106Z,7.35
2019-05-07T08:17:42.038Z,7.38
2019-05-07T08:20:12.958Z,7.13
2019-05-07T08:22:42.338Z,7.29
2019-05-07T08:25:12.506Z,7.12
2019-05-07T08:27:42.053Z,6.98
2019-05-07T08:30:13.676Z,7.20
2019-05-07T08:32:52.938Z,7.14
2019-05-07T08:35:41.912Z,7.18
2019-05-07T08:38:12.758Z,7.33
2019-05-07T08:40:41.899Z,7.18
2019-05-07T08:43:12.615Z,7.17
2019-05-07T08:45:56.835Z,7.20
2019-05-07T08:48:33.379Z,7.33
2019-05-07T08:51:02.585Z,7.41
2019-05-07T08:53:32.825Z,7.50
2019-05-07T08:56:03.219Z,7.85
2019-05-07T08:58:32.268Z,7.94
2019-05-07T09:01:03.642Z,7.80
2019-05-07T09:03:44.655Z,7.85
2019-05-07T09:06:14.791Z,7.75
2019-05-07T09:08:43.724Z,7.74
2019-05-07T09:11:13.382Z,7.67
2019-05-07T09:13:42.761Z,7.60
2019-05-07T09:16:12.946Z,7.78
2019-05-07T09:18:42.283Z,7.83
2019-05-07T09:21:12.556Z,7.52
2019-05-07T09:23:42.435Z,7.64
2019-05-07T09:26:13.894Z,7.57
2019-05-07T09:29:02.657Z,7.33
2019-05-07T09:31:43.081Z,7.30
2019-05-07T09:34:11.848Z,7.42
2019-05-07T09:36:51.844Z,7.53
2019-05-07T09:39:22.122Z,7.75
2019-05-07T09:41:52.641Z,7.88
2019-05-07T09:44:22.187Z,7.96
2019-05-07T09:46:54.040Z,7.85
2019-05-07T09:49:22.738Z,8.08
2019-05-07T09:51:52.051Z,8.13
2019-05-07T09:54:22.980Z,8.13
2019-05-07T09:56:52.590Z,8.27
2019-05-07T09:59:21.917Z,8.27
2019-05-07T10:01:50.784Z,8.20
2019-05-07T10:04:22.232Z,8.25
2019-05-07T10:06:51.885Z,8.20
2019-05-07T10:09:22.304Z,8.24
2019-05-07T10:12:02.754Z,8.29
2019-05-07T10:14:33.115Z,8.30
2019-05-07T10:17:27.098Z,8.38
2019-05-07T10:19:56.028Z,8.24
2019-05-07T10:22:24.873Z,8.61
2019-05-07T10:24:53.634Z,8.98
2019-05-07T10:27:22.468Z,9.47
2019-05-07T10:29:53.029Z,9.56
2019-05-07T10:32:22.132Z,9.68
2019-05-07T10:34:52.516Z,9.76
2019-05-07T10:37:21.331Z,9.63
2019-05-07T10:39:51.889Z,9.36
2019-05-07T10:42:22.603Z,9.17
2019-05-07T10:45:05.644Z,9.10
2019-05-07T10:47:58.406Z,8.82
2019-05-07T10:50:37.969Z,8.71
2019-05-07T10:53:01.930Z,8.51
2019-05-07T10:55:32.598Z,8.60
2019-05-07T10:58:02.770Z,8.53
2019-05-07T11:00:33.083Z,8.67
2019-05-07T11:03:02.541Z,8.72
2019-05-07T11:05:32.586Z,8.67
2019-05-07T11:08:02.467Z,8.86
2019-05-07T11:10:32.702Z,8.85
2019-05-07T11:13:02.397Z,8.89
2019-05-07T11:15:32.601Z,8.95
2019-05-07T11:18:12.796Z,8.95
2019-05-07T11:20:49.813Z,9.00
2019-05-07T11:23:12.391Z,9.14
2019-05-07T11:25:42.121Z,9.13
2019-05-07T11:28:12.390Z,9.25
2019-05-07T11:30:42.555Z,9.26
2019-05-07T11:33:12.828Z,9.17
2019-05-07T11:35:42.454Z,9.24
2019-05-07T11:38:20.788Z,9.37
2019-05-07T11:40:42.722Z,9.47
2019-05-07T11:43:22.283Z,9.57
2019-05-07T11:45:58.825Z,9.78
2019-05-07T11:48:27.661Z,9.77
2019-05-07T11:51:04.352Z,9.87
2019-05-07T11:53:32.944Z,10.35
2019-05-07T11:56:02.527Z,10.35
2019-05-07T11:58:32.534Z,10.34
2019-05-07T12:01:15.213Z,10.21
2019-05-07T12:03:44.153Z,9.94
2019-05-07T12:06:13.184Z,9.71
2019-05-07T12:08:48.220Z,9.71
2019-05-07T12:11:12.473Z,9.70
2019-05-07T12:13:43.294Z,9.86
2019-05-07T12:16:14.204Z,9.97
2019-05-07T12:18:43.185Z,10.07
2019-05-07T12:21:20.633Z,10.05
2019-05-07T12:23:42.972Z,10.33
2019-05-07T12:26:12.610Z,10.88
2019-05-07T12:28:41.946Z,11.23
2019-05-07T12:31:28.344Z,11.30
2019-05-07T12:34:02.611Z,11.70
2019-05-07T12:36:33.130Z,11.30
2019-05-07T12:39:02.324Z,10.68
2019-05-07T12:41:33.722Z,10.66
2019-05-07T12:44:04.807Z,10.64
2019-05-07T12:46:33.880Z,10.96
2019-05-07T12:49:03.228Z,11.27
2019-05-07T12:51:38.106Z,11.48
2019-05-07T12:54:29.069Z,11.24
2019-05-07T12:56:57.858Z,10.79
2019-05-07T12:59:26.616Z,10.82
2019-05-07T13:02:21.376Z,11.16
2019-05-07T13:04:41.803Z,11.21
2019-05-07T13:07:15.907Z,11.30
2019-05-07T13:09:44.695Z,11.44
2019-05-07T13:12:13.402Z,11.28
2019-05-07T13:14:42.338Z,11.21
2019-05-07T13:17:12.113Z,11.25
2019-05-07T13:19:41.992Z,11.08
2019-05-07T13:22:12.433Z,10.82
2019-05-07T13:24:42.487Z,11.24
2019-05-07T13:27:11.406Z,11.96
2019-05-07T13:29:44.573Z,12.28
2019-05-07T13:32:13.928Z,12.30
2019-05-07T13:34:42.872Z,12.00
2019-05-07T13:37:17.726Z,12.56
2019-05-07T13:39:54.376Z,13.01
2019-05-07T13:42:44.125Z,13.06
2019-05-07T13:45:31.992Z,13.32
2019-05-07T13:48:08.743Z,12.80
2019-05-07T13:50:38.098Z,11.94
2019-05-07T13:53:07.134Z,11.71
2019-05-07T13:55:36.736Z,11.67
2019-05-07T13:58:05.594Z,11.79
2019-05-07T14:00:39.443Z,12.19
2019-05-07T14:03:08.213Z,12.16
2019-05-07T14:05:37.271Z,12.00
2019-05-07T14:08:06.605Z,12.13
2019-05-07T14:10:35.350Z,12.00
2019-05-07T14:13:11.147Z,12.28
2019-05-07T14:15:35.362Z,12.16
2019-05-07T14:18:04.485Z,11.96
2019-05-07T14:20:33.201Z,11.62
2019-05-07T14:23:01.915Z,11.23
2019-05-07T14:25:32.544Z,11.28
2019-05-07T14:28:02.252Z,11.26
2019-05-07T14:30:32.840Z,11.15
2019-05-07T14:33:08.217Z,11.19
2019-05-07T14:35:42.694Z,11.20
2019-05-07T14:38:32.065Z,11.11
2019-05-07T14:41:02.642Z,11.27
2019-05-07T14:43:37.743Z,11.84
2019-05-07T14:46:06.499Z,12.29
2019-05-07T14:48:36.274Z,12.57
2019-05-07T14:51:05.423Z,12.76
2019-05-07T14:53:34.300Z,12.82
2019-05-07T14:56:03.103Z,12.58
2019-05-07T14:58:32.015Z,12.33
2019-05-07T15:01:02.410Z,12.08
2019-05-07T15:03:32.057Z,11.99
2019-05-07T15:06:02.027Z,11.80
2019-05-07T15:08:32.284Z,11.69
2019-05-07T15:11:02.718Z,11.71
2019-05-07T15:13:32.269Z,11.55
2019-05-07T15:16:03.073Z,11.39
2019-05-07T15:19:03.059Z,11.18
2019-05-07T15:21:32.460Z,11.05
2019-05-07T15:24:02.411Z,10.83
2019-05-07T15:26:32.642Z,10.71
2019-05-07T15:29:11.868Z,10.38
2019-05-07T15:32:14.262Z,10.25
2019-05-07T15:35:26.665Z,10.08
2019-05-07T15:37:55.718Z,10.00
2019-05-07T15:40:24.850Z,9.96
2019-05-07T15:43:13.134Z,9.90
2019-05-07T15:45:42.133Z,9.90
2019-05-07T15:48:12.694Z,9.81
2019-05-07T15:50:42.885Z,9.81
2019-05-07T15:53:32.376Z,9.82
2019-05-07T15:56:01.856Z,9.80
2019-05-07T15:58:30.609Z,9.86
2019-05-07T16:01:02.061Z,9.89
2019-05-07T16:03:35.138Z,9.94
2019-05-07T16:06:04.073Z,9.97
2019-05-07T16:08:35.849Z,9.93
2019-05-07T16:11:04.635Z,9.99
2019-05-07T16:13:35.081Z,10.00
2019-05-07T16:16:03.773Z,10.04
2019-05-07T16:18:38.124Z,10.08
2019-05-07T16:21:07.330Z,10.14
2019-05-07T16:23:38.947Z,10.15
2019-05-07T16:26:07.967Z,10.22
2019-05-07T16:28:36.956Z,10.23
2019-05-07T16:31:05.684Z,10.27
2019-05-07T16:33:34.812Z,10.29
2019-05-07T16:36:03.658Z,10.37
2019-05-07T16:38:32.803Z,10.41
2019-05-07T16:41:01.518Z,10.44
2019-05-07T16:43:30.218Z,10.52
2019-05-07T16:45:58.915Z,10.44
2019-05-07T16:48:27.598Z,10.44
2019-05-07T16:50:56.753Z,10.46
2019-05-07T16:53:30.104Z,10.45
2019-05-07T16:55:56.115Z,10.46
2019-05-07T16:58:38.628Z,10.48
2019-05-07T17:01:09.077Z,10.54
2019-05-07T17:03:44.971Z,10.52
2019-05-07T17:06:13.672Z,10.52
2019-05-07T17:08:55.952Z,10.53
2019-05-07T17:11:24.843Z,10.49
2019-05-07T17:13:53.683Z,10.41
2019-05-07T17:16:22.918Z,10.39
2019-05-07T17:18:52.021Z,10.33
2019-05-07T17:21:21.810Z,10.28
2019-05-07T17:23:51.931Z,10.28
2019-05-07T17:26:23.031Z,10.23
2019-05-07T17:28:52.095Z,10.24
2019-05-07T17:31:22.927Z,10.13
2019-05-07T17:33:51.709Z,10.13
2019-05-07T17:36:22.286Z,10.10
2019-05-07T17:38:51.975Z,10.00
2019-05-07T17:41:26.543Z,10.03
2019-05-07T17:43:52.173Z,9.97
2019-05-07T17:46:21.789Z,9.97
2019-05-07T17:48:52.434Z,9.86
2019-05-07T17:51:42.174Z,9.83
2019-05-07T17:54:13.134Z,9.79
2019-05-07T17:56:42.283Z,9.75
2019-05-07T17:59:12.188Z,9.77
2019-05-07T18:02:01.924Z,9.77
2019-05-07T18:04:36.538Z,9.75
2019-05-07T18:07:02.989Z,9.74
2019-05-07T18:09:32.012Z,9.69
2019-05-07T18:12:00.779Z,9.69
2019-05-07T18:14:32.378Z,9.65
2019-05-07T18:17:21.919Z,9.66
2019-05-07T18:19:50.738Z,9.65
2019-05-07T18:22:19.427Z,9.60
2019-05-07T18:24:48.452Z,9.56
2019-05-07T18:27:22.758Z,9.47
2019-05-07T18:29:52.254Z,9.27
2019-05-07T18:32:21.939Z,9.22
2019-05-07T18:34:51.953Z,9.19
2019-05-07T18:37:22.761Z,9.23
2019-05-07T18:39:52.203Z,9.15
2019-05-07T18:42:22.208Z,9.01
2019-05-07T18:44:52.452Z,9.01
2019-05-07T18:47:22.319Z,9.00
2019-05-07T18:49:51.985Z,9.00
2019-05-07T18:52:22.796Z,8.88
2019-05-07T18:54:52.081Z,8.81
2019-05-07T18:57:22.233Z,8.70
2019-05-07T18:59:53.154Z,8.68
2019-05-07T19:02:22.561Z,8.68
2019-05-07T19:04:51.993Z,8.60
2019-05-07T19:07:23.107Z,8.48
2019-05-07T19:09:52.388Z,8.43
2019-05-07T19:12:23.798Z,8.23
2019-05-07T19:14:52.715Z,8.08
2019-05-07T19:17:22.204Z,8.15
2019-05-07T19:19:52.538Z,8.19
2019-05-07T19:22:22.187Z,8.14
2019-05-07T19:24:52.699Z,8.16
2019-05-07T19:27:22.099Z,8.12
2019-05-07T19:29:51.172Z,7.94
2019-05-07T19:32:19.934Z,7.92
2019-05-07T19:34:48.949Z,7.83
2019-05-07T19:37:17.720Z,7.72
2019-05-07T19:39:46.504Z,7.59
2019-05-07T19:42:15.213Z,7.50
2019-05-07T19:44:43.913Z,7.42
2019-05-07T19:47:12.858Z,7.47
2019-05-07T19:49:42.033Z,7.53
2019-05-07T19:52:12.511Z,7.49
2019-05-07T19:54:44.350Z,7.47
2019-05-07T19:57:14.739Z,7.33
2019-05-07T19:59:43.677Z,7.16
2019-05-07T20:02:14.939Z,7.20
2019-05-07T20:04:43.622Z,7.12
2019-05-07T20:07:12.333Z,7.02
2019-05-07T20:09:42.867Z,6.94
2019-05-07T20:12:11.594Z,6.90
2019-05-07T20:14:42.196Z,6.81
2019-05-07T20:17:12.250Z,6.74
2019-05-07T20:19:41.799Z,6.74
2019-05-07T20:22:12.634Z,6.73
2019-05-07T20:24:43.297Z,6.72
2019-05-07T20:27:14.360Z,6.71
2019-05-07T20:29:43.217Z,6.67
2019-05-07T20:32:12.005Z,6.61
2019-05-07T20:34:42.308Z,6.53
2019-05-07T20:37:12.917Z,6.45
2019-05-07T20:39:43.092Z,6.48
2019-05-07T20:42:12.439Z,6.48
2019-05-07T20:44:42.640Z,6.45
2019-05-07T20:47:12.673Z,6.45
2019-05-07T20:49:42.732Z,6.39
2019-05-07T20:52:11.629Z,6.30
2019-05-07T20:54:45.929Z,6.31
2019-05-07T20:57:17.692Z,6.33
2019-05-07T20:59:46.397Z,6.30
2019-05-07T21:02:17.505Z,6.27
2019-05-07T21:04:46.202Z,6.28
2019-05-07T21:07:15.146Z,6.27
2019-05-07T21:09:44.092Z,6.31
2019-05-07T21:12:13.054Z,6.29
2019-05-07T21:14:41.898Z,6.26
2019-05-07T21:17:11.953Z,6.21
2019-05-07T21:19:42.769Z,6.22
2019-05-07T21:22:13.000Z,6.06
2019-05-07T21:24:42.326Z,6.14
2019-05-07T21:27:12.201Z,6.15
2019-05-07T21:29:42.236Z,6.15
2019-05-07T21:32:12.389Z,6.16
2019-05-07T21:34:43.348Z,6.14
2019-05-07T21:37:12.815Z,6.16
2019-05-07T21:39:42.407Z,6.13
2019-05-07T21:42:13.906Z,6.10
2019-05-07T21:44:43.037Z,6.11
2019-05-07T21:47:12.997Z,6.11
2019-05-07T21:49:43.038Z,6.12
2019-05-07T21:52:12.687Z,6.11
2019-05-07T21:54:52.538Z,5.98
2019-05-07T21:57:47.308Z,6.01
2019-05-07T22:00:22.215Z,6.01
2019-05-07T22:02:52.621Z,6.01
2019-05-07T22:05:22.508Z,6.01
2019-05-07T22:07:54.117Z,5.93
2019-05-07T22:10:22.310Z,5.88
2019-05-07T22:12:52.112Z,5.85
2019-05-07T22:15:22.544Z,5.84
2019-05-07T22:17:52.106Z,5.81
2019-05-07T22:20:21.869Z,5.75
2019-05-07T22:22:52.148Z,5.75
2019-05-07T22:25:22.219Z,5.75
2019-05-07T22:27:53.028Z,5.77
2019-05-07T22:30:27.897Z,5.82
2019-05-07T22:33:02.465Z,5.85
2019-05-07T22:35:38.040Z,5.79
2019-05-07T22:38:06.745Z,5.83
2019-05-07T22:40:35.470Z,5.83
2019-05-07T22:43:04.160Z,5.88
2019-05-07T22:45:32.852Z,5.87
2019-05-07T22:48:02.856Z,5.87
2019-05-07T22:50:33.180Z,5.87
2019-05-07T22:53:02.442Z,5.84
2019-05-07T22:55:32.657Z,5.86
2019-05-07T22:58:25.922Z,5.87
2019-05-07T23:00:59.141Z,5.78
2019-05-07T23:03:27.843Z,5.73
2019-05-07T23:06:07.082Z,5.72
2019-05-07T23:08:37.624Z,5.80
2019-05-07T23:11:06.717Z,5.85
2019-05-07T23:13:36.593Z,5.82
2019-05-07T23:16:05.979Z,5.78
2019-05-07T23:18:34.741Z,5.80
2019-05-07T23:21:03.816Z,5.77
2019-05-07T23:23:32.616Z,5.68
2019-05-07T23:26:02.932Z,5.65
2019-05-07T23:28:32.370Z,5.64
2019-05-07T23:31:02.552Z,5.63
2019-05-07T23:33:32.188Z,5.63
2019-05-07T23:36:02.180Z,5.64
2019-05-07T23:38:31.962Z,5.56
2019-05-07T23:41:25.911Z,5.57
2019-05-07T23:44:12.406Z,5.54
2019-05-07T23:46:42.608Z,5.54
2019-05-07T23:49:12.558Z,5.53
2019-05-07T23:51:42.957Z,5.52
2019-05-07T23:54:12.303Z,5.49
2019-05-07T23:56:42.808Z,5.44
2019-05-07T23:59:12.692Z,5.39
